AirNav   Jet Aviation Boston
 
 906 users online  

2RR River Ranch Resort Airport
River Ranch, Florida, USA

GOING TO RIVER RANCH?


FAA INFORMATION EFFECTIVE 29 MARCH 2018

Location

FAA Identifier: 2RR
Lat/Long: 27-46-45.6000N / 081-12-14.1000W
27-46.760000N / 081-12.235000W
27.7793333 / -81.2039167
(estimated)
Elevation: 55 ft. / 17 m (estimated)
Variation: 03W (1985)
Time zone: UTC -4 (UTC -5 during Standard Time)
Zip code: 33853

Airport Operations

Airport use: Open to the public
Control tower: no
ARTCC: MIAMI CENTER
FSS: SAINT PETERSBURG FLIGHT SERVICE STATION
NOTAMs facility: PIE (NOTAM-D service available)
Attendance: CONTINUOUS
Wind indicator: lighted
Segmented circle: no
Beacon: white-green (lighted land airport)
RDO-CTL

Airport Communications

CTAF/UNICOM: 122.8

Nearby radio navigation aids

VOR radial/distance  VOR name  Freq  Var
MLBr244/35.9MELBOURNE VOR/DME110.0007W
TRVr286/38.4TREASURE VORTAC117.3007W

 
NDB name  Hdg/Dist  Freq  Var  ID
SATELLITE240/32.925706WSQT ... --.- -

Airport Services

Fuel available: 100LL
Parking: tiedowns
Airframe service: NONE
Powerplant service: NONE

Runway Information

Runway 16/34

Dimensions: 4950 x 75 ft. / 1509 x 23 m
Surface: asphalt, in fair condition
Runway edge lights: non-standard
Runway edge markings: RY 16/34 THLD MARKINGS HAVE INCORRECT SPACING.
RUNWAY 16  RUNWAY 34
Latitude: 27-47.134500N27-46.386667N
Longitude: 081-12.420833W081-12.050500W
Traffic pattern: leftright
Displaced threshold: 200 ft.1000 ft.
Markings: basic, in poor conditionbasic, in poor condition
Obstructions: 35 ft. tree, 317 ft. from runway, 10 ft. left of centerline, 3:1 slope to clear
RY 16 APCH RATIO 15:1 TO DSPLCD THLD.
40 ft. tree, 320 ft. from runway, 88 ft. left of centerline, 3:1 slope to clear
RY 34 APCH RATIO 30:1 FROM DSPLCD THLD.

Airport Ownership and Management from official FAA records

Ownership: Privately-owned
Owner: WESTGATE RESORTS CENTRAL FL INVEST
PO BOX 30030
RIVER RANCH, FL 33867-0030
Phone 863-692-0727
Manager: BOB MOUNT
3600 RIVER RANCH BOULEVARD
RIVER RANCH, FL 33867-0030
Phone 863-692-1321

Additional Remarks

RWY 34 250' TOWER E 3000' SE OF RWY END E 2400' RT OF CL.
30 FT BRUSH & TREES 125 FT FROM CNTRLN BOTH SIDES OF RY.

Instrument Procedures

There are no published instrument procedures at 2RR.

Some nearby airports with instrument procedures:

KAVO - Avon Park Executive Airport (21 nm SW)
KSEF - Sebring Regional Airport (21 nm S)
X07 - Lake Wales Municipal Airport (23 nm W)
KBOW - Bartow Municipal Airport (32 nm W)
KISM - Kissimmee Gateway Airport (33 nm N)
 
Loc | Ops | Rwys | IFR | FBO | Links
Com | Nav | Svcs | Stats | Notes

Reliance Aviation
AirBoss

 
Area around 2RR (River Ranch Resort Airport)
 
Road maps at: MapQuest Bing Google
 
Aerial photo
WARNING: Photo may not be current or correct
Aerial photo of 2RR (River Ranch Resort Airport)
Photo by Michael Ruperti
Photo taken 01-Aug-2009
from a Cessna 172 M.

Do you have a better or more recent aerial photo of River Ranch Resort Airport that you would like to share? If so, please send us your photo.

 
Sectional chart

 
Airport distance calculator
Flying to River Ranch Resort Airport? Find the distance to fly.

From to 2RR

Sunrise and sunset
Times for 22-Apr-2018
 Local
(UTC-4)
 Zulu
(UTC)
Morning civil twilight06:3010:30
Sunrise06:5410:54
Sunset19:5323:53
Evening civil twilight20:1700:17

Current date and time
Zulu (UTC)  22-Apr-2018 23:13:05
Local (UTC-4)  22-Apr-2018 19:13:05
 
METAR
KSEF 
21nm S 
222255Z AUTO 19005KT 10SM CLR 24/18 A3003 RMK AO2 T02410176
KBOW 
31nm W 
222112Z 07014KT 6SM -RA SCT008 BKN025 20/20 A3002 RMK TSE12 MVD N
KISM 
33nm N 
222256Z 12008KT 10SM BKN022 OVC027 24/21 A3003 RMK AO2 WSHFT 2143 RAE14 SLP172 P0002 T02440206
KGIF 
34nm NW 
222253Z AUTO 11011KT 10SM CLR 23/20 A3003 RMK AO2 SLP166 T02330200
KMLB 
35nm NE 
222253Z 11016KT 10SM BKN022 BKN031 OVC049 24/21 A3004 RMK AO2 SLP172 T02440206
KOBE 
36nm SE 
222255Z AUTO 19004KT 5SM +VCTSRA SCT016 BKN036 OVC065 22/17 A3005 RMK AO2 P0008 LTG DSNT SE AND S
X26 
38nm E 
SuperAWOS
221655Z AUTO 12012G20KT 10SM 24/23 A3013
KMCO 
39nm N 
222253Z 11015G21KT 10SM FEW021 SCT035 BKN250 25/20 A3002 RMK AO2 SLP165 T02500200
TAF
KISM 
33nm N 
222120Z 2221/2318 10013G19KT P6SM VCSH SCT020 BKN035 TEMPO 2221/2223 2SM +SHRA BKN020 FM230000 11009KT P6SM SCT020 BKN040 FM230600 15006KT P6SM SCT020 BKN035 FM231400 18010KT P6SM SCT030 BKN080
KMLB 
35nm NE 
221837Z 2219/2318 11014G22KT P6SM VCSH SCT015 BKN035 TEMPO 2219/2221 2SM +SHRA BKN020 FM230000 11013KT P6SM VCSH SCT020 BKN030 FM230600 14007KT P6SM VCSH SCT025 BKN035 FM231400 16012G19KT P6SM VCSH SCT025 BKN080
KMCO 
39nm N 
222112Z 2221/2324 09015G19KT P6SM VCSH SCT030 SCT080 FM230000 11010KT P6SM SCT020 BKN035 FM231200 15009KT P6SM SCT020 BKN080 FM231800 18010KT P6SM VCSH SCT030 BKN090
NOTAMs
Click for the latest NOTAMs
NOTAMs are issued by the DoD/FAA and will open in a separate window not controlled by AirNav.

 

 
 

FBO, Fuel Providers, and Aircraft Ground Support

  
 Business Name 
 
 Contact 
 
 Services / Description 
 
Fuel Prices
 
Comments
  
Westgate River Ranch Aviation 863-692-2907
no information available

If you are affiliated with Westgate River Ranch Aviation and would like to show here your services, contact info, web link, logo, and more, click here
100LL
SS $4.99 
 Updated 17-Apr-2018
 
   write
SS=Self service
Update Fuel Prices
 

Would you like to see your business listed on this page?

 If your business provides an interesting product or service to pilots, flight crews, aircraft, or users of the River Ranch Resort Airport, you should consider listing it here.  To start the listing process, click on the button below
 
Add a business
 

Other Pages about River Ranch Resort Airport

www.westgatedestinations.com/...
 
Update a link
 
Copyright © AirNav, LLC. All rights reserved. Privacy Policy  Contact